Time;durP1;ratioP1;P1;durP2;ratioP2;P2;SDS_P1;SDS_P2;PMS_P1;PMS_P2;Temp;Humidity;BMP_temperature;BMP_pressure;BME280_temperature;BME280_humidity;BME280_pressure;Samples;Min_cycle;Max_cycle;Signal;HPM_P1;HPM_P2
2020/12/16 00:00:22;;;;;;;18.45;12.85;;;8.30;99.90;;;;;;4919733;29;20384;-71
2020/12/16 00:02:47;;;;;;;17.35;12.52;;;8.30;99.90;;;;;;4919752;29;20035;-72
2020/12/16 00:05:13;;;;;;;17.98;12.63;;;8.30;99.90;;;;;;4919436;29;20024;-71
2020/12/16 00:11:00;;;;;;;19.65;13.07;;;8.20;99.90;;;;;;4919648;29;20080;-71
2020/12/16 00:13:26;;;;;;;18.05;12.90;;;8.20;99.90;;;;;;4919144;29;20036;-70
2020/12/16 00:15:52;;;;;;;17.40;12.75;;;8.20;99.90;;;;;;4919453;29;20076;-72
2020/12/16 00:18:17;;;;;;;18.73;13.32;;;8.20;99.90;;;;;;4919186;29;20075;-71
2020/12/16 00:20:43;;;;;;;19.38;13.48;;;8.20;99.90;;;;;;4919343;29;20032;-72
2020/12/16 00:23:12;;;;;;;19.13;12.57;;;8.20;99.90;;;;;;4919356;29;20024;-72
2020/12/16 00:25:38;;;;;;;18.00;13.65;;;8.20;99.90;;;;;;4919130;29;20424;-70
2020/12/16 00:28:03;;;;;;;17.13;13.15;;;8.20;99.90;;;;;;4919361;29;20036;-70
2020/12/16 00:30:29;;;;;;;20.58;13.65;;;8.20;99.90;;;;;;4919036;29;20075;-73
2020/12/16 00:32:55;;;;;;;20.67;14.93;;;8.30;99.90;;;;;;4919032;29;20115;-71
2020/12/16 00:35:20;;;;;;;19.45;14.05;;;8.30;99.90;;;;;;4919226;29;20020;-72
2020/12/16 00:41:09;;;;;;;20.52;14.63;;;8.40;99.90;;;;;;4919124;29;20039;-70
2020/12/16 00:43:35;;;;;;;18.80;14.38;;;8.50;99.90;;;;;;4918788;29;20024;-69
2020/12/16 00:46:00;;;;;;;23.13;15.70;;;8.50;99.90;;;;;;4918767;29;20024;-72
2020/12/16 00:48:26;;;;;;;21.58;15.15;;;8.60;99.90;;;;;;4918910;29;20059;-71
2020/12/16 00:50:52;;;;;;;20.25;16.10;;;8.60;99.90;;;;;;4918923;29;20452;-71
2020/12/16 00:53:17;;;;;;;22.10;16.23;;;8.60;99.90;;;;;;4918967;29;20028;-74
2020/12/16 00:55:43;;;;;;;21.67;16.27;;;8.70;99.90;;;;;;4918020;29;20017;-73
2020/12/16 00:58:09;;;;;;;26.33;17.05;;;8.80;99.90;;;;;;4918889;29;20059;-73
2020/12/16 01:00:34;;;;;;;24.70;16.50;;;8.80;99.90;;;;;;4918686;29;20032;-71
2020/12/16 01:03:00;;;;;;;26.38;18.10;;;8.80;99.90;;;;;;4918546;29;20448;-73
2020/12/16 01:05:26;;;;;;;23.65;17.25;;;8.80;99.90;;;;;;4918720;29;20031;-72
2020/12/16 01:11:13;;;;;;;26.00;18.77;;;8.80;99.90;;;;;;4918402;29;20076;-70
2020/12/16 01:13:39;;;;;;;26.95;17.90;;;8.70;99.90;;;;;;4918596;29;20029;-72
2020/12/16 01:16:04;;;;;;;26.83;18.38;;;8.70;99.90;;;;;;4918202;29;20441;-73
2020/12/16 01:18:30;;;;;;;28.75;18.45;;;8.80;99.90;;;;;;4918280;29;20059;-73
2020/12/16 01:20:56;;;;;;;26.88;17.13;;;8.80;99.90;;;;;;4918324;29;20115;-72
2020/12/16 01:23:21;;;;;;;25.45;16.95;;;8.90;99.90;;;;;;4918410;29;20050;-72
2020/12/16 01:25:47;;;;;;;26.55;16.40;;;9.00;99.90;;;;;;4918351;29;20503;-72
2020/12/16 01:28:12;;;;;;;26.02;17.27;;;9.00;99.90;;;;;;4918186;29;20385;-72
2020/12/16 01:30:38;;;;;;;24.02;16.52;;;9.00;99.90;;;;;;4917856;29;20045;-72
2020/12/16 01:33:04;;;;;;;27.95;17.88;;;9.10;99.90;;;;;;4917975;29;20028;-72
2020/12/16 01:35:29;;;;;;;25.58;17.58;;;9.10;99.90;;;;;;4918294;29;20484;-72
2020/12/16 01:41:17;;;;;;;29.38;18.40;;;9.10;99.90;;;;;;4918132;29;20039;-72
2020/12/16 01:43:42;;;;;;;31.08;18.50;;;9.10;99.90;;;;;;4917731;29;20032;-73
2020/12/16 01:46:08;;;;;;;28.83;17.67;;;9.10;99.90;;;;;;4917732;29;20028;-71
2020/12/16 01:48:34;;;;;;;27.00;17.85;;;9.10;99.90;;;;;;4917889;29;20075;-73
2020/12/16 01:50:59;;;;;;;29.38;17.63;;;9.10;99.90;;;;;;4917511;29;20130;-73
2020/12/16 01:53:28;;;;;;;26.88;18.08;;;9.00;99.90;;;;;;4917464;29;20039;-73
2020/12/16 01:55:53;;;;;;;26.40;18.08;;;9.00;99.90;;;;;;4917476;29;20436;-72
2020/12/16 01:58:23;;;;;;;29.80;18.23;;;8.90;99.90;;;;;;4917619;29;20024;-72
2020/12/16 02:00:51;;;;;;;27.35;17.23;;;8.90;99.90;;;;;;4917343;29;20021;-72
2020/12/16 02:03:21;;;;;;;30.33;18.77;;;8.90;99.90;;;;;;4917609;29;20039;-72
2020/12/16 02:05:50;;;;;;;27.63;18.13;;;8.90;99.90;;;;;;4917581;29;20032;-72
2020/12/16 02:11:39;;;;;;;28.25;16.92;;;8.90;99.90;;;;;;4917510;29;20123;-73
2020/12/16 02:14:07;;;;;;;24.10;17.38;;;8.90;99.90;;;;;;4917176;29;20460;-72
2020/12/16 02:16:37;;;;;;;25.45;17.33;;;8.90;99.90;;;;;;4917440;29;20408;-73
2020/12/16 02:19:05;;;;;;;26.88;17.20;;;8.90;99.90;;;;;;4917432;29;20067;-71
2020/12/16 02:21:31;;;;;;;27.83;16.80;;;8.90;99.90;;;;;;4916993;29;20080;-74
2020/12/16 02:24:12;;;;;;;23.33;16.02;;;9.00;99.90;;;;;;4916910;29;20040;-72
2020/12/16 02:26:39;;;;;;;30.10;16.45;;;9.00;99.90;;;;;;4917318;29;20024;-73
2020/12/16 02:29:08;;;;;;;26.48;16.75;;;9.00;99.90;;;;;;4916638;29;20559;-72
2020/12/16 02:31:40;;;;;;;26.35;15.77;;;9.00;99.90;;;;;;4916963;29;20024;-74
2020/12/16 02:34:06;;;;;;;22.58;14.82;;;9.00;99.90;;;;;;4916870;29;20020;-73
2020/12/16 02:36:32;;;;;;;25.30;15.52;;;9.00;99.90;;;;;;4917066;29;20028;-74
2020/12/16 02:38:58;;;;;;;26.73;15.77;;;9.00;99.90;;;;;;4916714;29;20466;-72
2020/12/16 02:41:24;;;;;;;22.08;15.35;;;9.10;99.90;;;;;;4917081;29;20171;-70
2020/12/16 02:43:51;;;;;;;23.92;16.48;;;9.10;99.90;;;;;;4917040;29;20080;-70
2020/12/16 02:46:16;;;;;;;26.15;14.93;;;9.10;99.90;;;;;;4916920;29;20055;-72
2020/12/16 02:48:42;;;;;;;18.75;14.93;;;9.10;99.90;;;;;;4916878;29;20416;-73
2020/12/16 02:51:08;;;;;;;21.38;16.23;;;9.20;99.90;;;;;;4916881;29;20464;-72
2020/12/16 02:56:56;;;;;;;21.23;16.20;;;9.20;99.90;;;;;;4916890;29;20481;-71
2020/12/16 02:59:24;;;;;;;22.55;16.08;;;9.20;99.90;;;;;;4916714;29;20032;-74
2020/12/16 03:01:54;;;;;;;21.30;16.45;;;9.20;99.90;;;;;;4916648;29;20059;-72
2020/12/16 03:04:21;;;;;;;24.02;16.20;;;9.20;99.90;;;;;;4916683;29;20024;-72
2020/12/16 03:06:56;;;;;;;19.48;14.48;;;9.20;99.90;;;;;;4916635;29;20036;-72
2020/12/16 03:09:24;;;;;;;19.92;14.13;;;9.30;99.90;;;;;;4916275;29;20036;-73
2020/12/16 03:11:52;;;;;;;18.35;13.27;;;9.30;99.90;;;;;;4916512;29;20024;-72
2020/12/16 03:14:17;;;;;;;22.08;16.13;;;9.30;99.90;;;;;;4916314;29;20118;-72
2020/12/16 03:16:43;;;;;;;22.67;15.52;;;9.30;99.90;;;;;;4916569;29;20069;-73
2020/12/16 03:19:09;;;;;;;20.20;14.38;;;9.30;99.90;;;;;;4915989;29;20086;-73
2020/12/16 03:27:41;;;;;;;19.42;13.35;;;9.40;99.90;;;;;;4916443;29;20063;-73
2020/12/16 03:30:07;;;;;;;20.70;14.43;;;9.40;99.90;;;;;;4916113;29;20473;-74
2020/12/16 03:32:33;;;;;;;16.75;12.88;;;9.40;99.90;;;;;;4916325;29;20103;-73
2020/12/16 03:34:58;;;;;;;17.15;12.98;;;9.40;99.90;;;;;;4916474;29;20020;-73
2020/12/16 03:37:24;;;;;;;17.58;12.82;;;9.40;99.90;;;;;;4916377;29;20036;-71
2020/12/16 03:39:50;;;;;;;20.15;14.23;;;9.40;99.90;;;;;;4916378;29;20086;-73
2020/12/16 03:42:15;;;;;;;18.88;13.63;;;9.40;99.90;;;;;;4916366;29;20189;-74
2020/12/16 03:44:41;;;;;;;18.63;13.18;;;9.50;99.90;;;;;;4916379;29;20032;-72
2020/12/16 03:47:07;;;;;;;19.15;13.38;;;9.50;99.90;;;;;;4915982;29;20373;-74
2020/12/16 03:49:32;;;;;;;22.73;15.85;;;9.50;99.90;;;;;;4915953;29;20072;-74
2020/12/16 03:51:58;;;;;;;20.08;14.25;;;9.50;99.90;;;;;;4916243;29;20075;-72
2020/12/16 03:54:24;;;;;;;21.90;15.23;;;9.50;99.90;;;;;;4915903;29;20032;-73
2020/12/16 03:56:50;;;;;;;22.75;15.48;;;9.50;99.90;;;;;;4916259;29;20024;-71
2020/12/16 03:59:16;;;;;;;23.42;16.00;;;9.50;99.90;;;;;;4916169;29;20024;-71
2020/12/16 04:01:42;;;;;;;23.33;16.38;;;9.60;99.90;;;;;;4916095;29;20106;-70
2020/12/16 04:04:08;;;;;;;22.92;15.95;;;9.60;99.90;;;;;;4916095;29;20461;-73
2020/12/16 04:06:34;;;;;;;21.23;15.27;;;9.60;99.90;;;;;;4915831;29;20107;-73
2020/12/16 04:12:22;;;;;;;24.10;15.95;;;9.60;99.90;;;;;;4916083;29;20083;-72
2020/12/16 04:14:47;;;;;;;21.48;14.82;;;9.60;99.90;;;;;;4915988;29;20115;-74
2020/12/16 04:17:13;;;;;;;25.30;16.30;;;9.70;99.90;;;;;;4915788;29;20029;-73
2020/12/16 04:19:39;;;;;;;24.67;16.17;;;9.70;99.90;;;;;;4918291;29;20087;-74
2020/12/16 04:22:04;;;;;;;22.60;15.45;;;9.70;99.90;;;;;;4928949;29;20044;-72
2020/12/16 04:24:30;;;;;;;20.50;13.93;;;9.70;99.90;;;;;;4926664;29;20544;-72
2020/12/16 04:26:55;;;;;;;23.05;15.88;;;9.70;99.90;;;;;;4915610;29;20147;-72
2020/12/16 04:29:21;;;;;;;25.75;16.88;;;9.70;99.90;;;;;;4915478;29;20056;-72
2020/12/16 04:31:51;;;;;;;23.15;15.88;;;9.70;99.90;;;;;;4917327;29;20028;-72
2020/12/16 04:34:17;;;;;;;20.98;15.05;;;9.70;99.90;;;;;;4919220;29;20028;-73
2020/12/16 04:36:50;;;;;;;23.00;16.65;;;9.70;99.90;;;;;;4918935;29;20099;-73
2020/12/16 04:42:39;;;;;;;23.73;15.80;;;9.80;99.90;;;;;;4919115;29;20043;-73
2020/12/16 04:45:04;;;;;;;25.92;15.60;;;9.80;99.90;;;;;;4919121;29;20063;-73
2020/12/16 04:47:30;;;;;;;23.95;15.63;;;9.80;99.90;;;;;;4918808;29;20444;-72
2020/12/16 04:49:56;;;;;;;24.55;15.65;;;9.80;99.90;;;;;;4918972;29;20043;-73
2020/12/16 04:52:25;;;;;;;23.05;15.73;;;9.80;99.90;;;;;;4918598;29;20492;-73
2020/12/16 04:54:51;;;;;;;23.77;16.15;;;9.80;99.90;;;;;;4918915;29;20416;-72
2020/12/16 04:57:17;;;;;;;20.85;14.52;;;9.70;99.90;;;;;;4918629;29;20031;-73
2020/12/16 04:59:43;;;;;;;17.60;13.15;;;9.70;99.90;;;;;;4918468;29;20088;-74
2020/12/16 05:02:08;;;;;;;17.92;13.20;;;9.80;99.90;;;;;;4918567;29;20056;-73
2020/12/16 05:04:34;;;;;;;16.75;12.13;;;9.80;99.90;;;;;;4918525;29;20024;-74
2020/12/16 05:07:00;;;;;;;16.38;11.57;;;9.80;99.90;;;;;;4918357;29;20037;-74
2020/12/16 05:13:00;;;;;;;14.77;11.10;;;9.80;99.90;;;;;;4918335;29;20180;-72
2020/12/16 05:15:25;;;;;;;14.30;10.85;;;9.80;99.90;;;;;;4918266;29;20469;-72
2020/12/16 05:18:19;;;;;;;13.52;11.10;;;9.90;99.90;;;;;;4918479;29;20035;-73
2020/12/16 05:20:59;;;;;;;12.10;9.60;;;9.90;99.90;;;;;;4918024;29;20040;-73
2020/12/16 05:23:27;;;;;;;10.88;9.60;;;9.90;99.90;;;;;;4918149;29;20473;-72
2020/12/16 05:26:01;;;;;;;10.65;9.27;;;9.90;99.90;;;;;;4918087;29;20029;-72
2020/12/16 05:28:29;;;;;;;13.70;10.98;;;9.90;99.90;;;;;;4918209;29;20476;-73
2020/12/16 05:30:55;;;;;;;11.77;9.75;;;9.80;99.90;;;;;;4917756;29;20044;-72
2020/12/16 05:33:22;;;;;;;12.52;10.63;;;9.90;99.90;;;;;;4918062;29;20183;-72
2020/12/16 05:35:51;;;;;;;14.15;11.48;;;9.90;99.90;;;;;;4918187;29;20032;-73
2020/12/16 05:38:17;;;;;;;15.73;12.82;;;9.90;99.90;;;;;;4917887;29;20031;-73
2020/12/16 05:40:43;;;;;;;14.73;12.20;;;9.80;99.90;;;;;;4917979;29;20052;-73
2020/12/16 05:43:19;;;;;;;17.52;13.65;;;9.80;99.90;;;;;;4917597;29;20047;-73
2020/12/16 05:45:45;;;;;;;16.45;12.23;;;9.80;99.90;;;;;;4917775;29;20495;-71
2020/12/16 05:48:12;;;;;;;16.88;13.07;;;9.80;99.90;;;;;;4917860;29;20032;-72
2020/12/16 05:50:45;;;;;;;14.77;12.52;;;9.80;99.90;;;;;;4917541;29;20477;-70
2020/12/16 05:53:16;;;;;;;17.02;13.93;;;9.80;99.90;;;;;;4917758;29;20028;-71
2020/12/16 05:55:47;;;;;;;14.85;12.85;;;9.80;99.90;;;;;;4917612;29;20032;-71
2020/12/16 05:58:15;;;;;;;15.65;13.35;;;9.80;99.90;;;;;;4917172;29;20157;-70
2020/12/16 06:00:45;;;;;;;17.85;13.88;;;9.80;99.90;;;;;;4899703;29;20075;-72
2020/12/16 06:03:20;;;;;;;21.63;14.60;;;9.80;99.90;;;;;;4916800;29;20029;-72
2020/12/16 06:06:09;;;;;;;17.10;13.27;;;9.80;99.90;;;;;;4917020;29;20047;-73
2020/12/16 06:08:40;;;;;;;17.33;13.70;;;9.80;99.90;;;;;;4876834;29;20080;-72
2020/12/16 06:11:08;;;;;;;22.00;14.75;;;9.80;99.90;;;;;;4876695;29;20040;-72
2020/12/16 06:13:34;;;;;;;20.73;15.75;;;9.80;99.90;;;;;;4876824;29;20100;-71
2020/12/16 06:16:01;;;;;;;18.65;14.20;;;9.70;99.90;;;;;;4876653;29;20029;-72
2020/12/16 06:18:29;;;;;;;17.45;13.82;;;9.80;99.90;;;;;;4876689;29;20113;-72
2020/12/16 06:20:55;;;;;;;20.42;15.75;;;9.80;99.90;;;;;;4876571;29;20033;-73
2020/12/16 06:23:29;;;;;;;19.70;15.45;;;9.80;99.90;;;;;;4876540;29;20029;-73
2020/12/16 06:25:57;;;;;;;20.10;14.93;;;9.70;99.90;;;;;;4876482;29;20041;-73
2020/12/16 06:28:24;;;;;;;19.50;14.95;;;9.70;99.90;;;;;;4876588;29;20530;-71
2020/12/16 06:31:07;;;;;;;17.27;13.80;;;9.80;99.90;;;;;;4876399;29;20045;-72
2020/12/16 06:33:39;;;;;;;17.67;12.85;;;9.70;99.90;;;;;;4876518;29;20041;-69
2020/12/16 06:36:08;;;;;;;16.58;13.32;;;9.80;99.90;;;;;;4876660;29;20592;-71
2020/12/16 06:38:49;;;;;;;15.55;12.68;;;9.80;99.90;;;;;;4876495;29;20070;-71
2020/12/16 06:41:19;;;;;;;18.30;13.68;;;9.80;99.90;;;;;;4876491;29;20033;-70
2020/12/16 06:43:46;;;;;;;15.27;11.50;;;9.80;99.90;;;;;;4876328;29;20037;-71
2020/12/16 06:46:32;;;;;;;14.98;11.20;;;9.90;99.90;;;;;;4892168;29;20485;-72
2020/12/16 06:49:03;;;;;;;13.02;8.52;;;9.90;99.90;;;;;;4857520;29;20487;-73
2020/12/16 06:51:35;;;;;;;15.52;11.20;;;9.90;99.90;;;;;;4857531;29;20606;-74
2020/12/16 06:54:07;;;;;;;17.38;12.98;;;10.00;99.90;;;;;;4856918;29;20133;-73
2020/12/16 06:56:33;;;;;;;17.17;12.35;;;9.90;99.90;;;;;;4857530;29;20038;-71
2020/12/16 06:58:59;;;;;;;15.70;10.77;;;9.90;99.90;;;;;;4857647;29;20538;-72
2020/12/16 07:01:25;;;;;;;17.95;12.18;;;9.90;99.90;;;;;;4857354;29;20136;-73
2020/12/16 07:03:51;;;;;;;19.45;12.40;;;9.90;99.90;;;;;;4857473;29;20029;-73
2020/12/16 07:06:28;;;;;;;16.73;11.95;;;9.90;99.90;;;;;;4857407;29;20506;-71
2020/12/16 07:09:13;;;;;;;15.82;10.68;;;9.90;99.90;;;;;;4857244;29;20047;-73
2020/12/16 07:11:59;;;;;;;19.25;11.93;;;9.90;99.90;;;;;;4857495;29;20142;-73
2020/12/16 07:14:33;;;;;;;15.30;10.70;;;9.90;99.90;;;;;;4857188;29;20133;-74
2020/12/16 07:17:05;;;;;;;15.20;11.02;;;10.00;99.90;;;;;;4857404;29;20112;-70
2020/12/16 07:19:31;;;;;;;19.52;12.23;;;10.00;99.90;;;;;;4857178;29;20065;-71
2020/12/16 07:21:57;;;;;;;14.65;10.98;;;10.00;99.90;;;;;;4857263;29;20590;-72
2020/12/16 07:24:24;;;;;;;17.95;11.45;;;10.00;99.90;;;;;;4857121;29;20112;-72
2020/12/16 07:26:55;;;;;;;13.88;10.07;;;10.10;99.90;;;;;;4889379;29;20089;-72
2020/12/16 07:29:35;;;;;;;15.93;9.73;;;10.10;99.90;;;;;;4899657;29;20044;-72
2020/12/16 07:32:12;;;;;;;13.27;9.85;;;10.10;99.90;;;;;;4915382;29;20504;-69
2020/12/16 07:34:57;;;;;;;15.85;10.20;;;10.10;99.90;;;;;;4915465;29;20032;-70
2020/12/16 07:37:32;;;;;;;18.25;11.35;;;10.20;99.90;;;;;;4915806;29;20047;-70
2020/12/16 07:40:00;;;;;;;17.95;11.32;;;10.20;99.90;;;;;;4915715;29;20020;-69
2020/12/16 07:42:30;;;;;;;17.33;11.05;;;10.20;99.90;;;;;;4915762;29;20433;-71
2020/12/16 07:44:59;;;;;;;17.58;11.80;;;10.20;99.90;;;;;;4915436;29;20092;-69
2020/12/16 07:47:26;;;;;;;15.95;11.27;;;10.20;99.90;;;;;;4915233;29;20040;-70
2020/12/16 07:49:52;;;;;;;15.10;10.68;;;10.30;99.90;;;;;;4915373;29;20032;-69
2020/12/16 07:52:27;;;;;;;14.50;10.45;;;10.30;99.90;;;;;;4915684;29;20071;-69
2020/12/16 07:54:54;;;;;;;16.90;11.38;;;10.30;99.90;;;;;;4915448;29;20028;-70
2020/12/16 07:57:30;;;;;;;15.77;12.15;;;10.40;99.90;;;;;;4915367;29;20116;-69
2020/12/16 07:59:56;;;;;;;9.25;5.32;;;11.30;99.90;;;;;;4915629;29;20032;-61
2020/12/16 08:02:22;;;;;;;13.63;8.05;;;14.80;99.90;;;;;;4915826;29;20063;-62
2020/12/16 08:04:56;;;;;;;16.55;11.15;;;15.80;99.90;;;;;;4915074;29;20032;-66
2020/12/16 08:07:22;;;;;;;17.50;11.93;;;15.30;99.90;;;;;;4918082;29;20036;-72
2020/12/16 08:10:00;;;;;;;18.85;12.20;;;14.40;99.90;;;;;;4918714;29;20111;-68
2020/12/16 08:12:54;;;;;;;16.90;10.77;;;12.50;99.90;;;;;;4918681;29;20077;-70
2020/12/16 08:15:19;;;;;;;12.30;8.93;;;11.00;99.90;;;;;;4917037;29;20043;-71
2020/12/16 08:17:47;;;;;;;13.93;9.95;;;10.40;99.90;;;;;;4918653;29;20024;-70
2020/12/16 08:20:14;;;;;;;14.10;10.55;;;10.10;99.90;;;;;;4918525;29;20071;-70
2020/12/16 08:22:40;;;;;;;15.55;10.40;;;9.70;99.90;;;;;;4918649;29;20031;-70
2020/12/16 08:25:10;;;;;;;13.63;9.27;;;9.50;99.90;;;;;;4918328;29;20067;-70
2020/12/16 08:27:47;;;;;;;16.52;9.63;;;9.40;99.90;;;;;;4918560;29;20039;-72
2020/12/16 08:30:15;;;;;;;14.88;9.90;;;9.30;99.90;;;;;;4917724;29;20523;-70
2020/12/16 08:33:01;;;;;;;14.55;9.55;;;9.40;99.90;;;;;;4918460;29;20039;-71
2020/12/16 08:35:41;;;;;;;16.73;9.88;;;9.10;99.90;;;;;;4918509;29;20032;-71
2020/12/16 08:38:11;;;;;;;15.45;9.35;;;9.00;99.90;;;;;;4918403;29;20030;-70
2020/12/16 08:40:39;;;;;;;18.08;10.43;;;9.00;99.90;;;;;;4918384;29;20032;-70
2020/12/16 08:43:22;;;;;;;16.10;9.98;;;8.80;99.90;;;;;;4918197;29;20028;-71
2020/12/16 08:45:48;;;;;;;17.83;10.30;;;8.70;99.90;;;;;;4918400;29;20035;-70
2020/12/16 08:48:14;;;;;;;15.75;9.48;;;8.70;99.90;;;;;;4918360;29;20127;-75
2020/12/16 08:50:40;;;;;;;17.83;10.50;;;8.60;99.90;;;;;;4918378;29;20111;-73
2020/12/16 08:53:06;;;;;;;17.23;10.15;;;8.60;99.90;;;;;;4918280;29;20106;-71
2020/12/16 08:55:37;;;;;;;17.77;9.75;;;8.60;99.90;;;;;;4918281;29;20032;-72
2020/12/16 08:58:03;;;;;;;14.60;10.43;;;8.50;99.90;;;;;;4918308;29;20041;-70
2020/12/16 09:00:35;;;;;;;19.02;13.77;;;8.60;99.90;;;;;;4918310;29;20033;-71
2020/12/16 09:03:05;;;;;;;17.92;10.98;;;8.50;99.90;;;;;;4917930;29;20589;-73
2020/12/16 09:05:31;;;;;;;18.60;11.45;;;8.50;99.90;;;;;;4917978;29;20052;-73
2020/12/16 09:08:11;;;;;;;18.55;10.60;;;8.40;99.90;;;;;;4917621;29;20393;-74
2020/12/16 09:10:38;;;;;;;17.00;9.77;;;8.30;99.90;;;;;;4917549;29;20028;-73
2020/12/16 09:13:15;;;;;;;17.52;9.70;;;8.40;99.90;;;;;;4917452;29;20035;-74
2020/12/16 09:15:46;;;;;;;15.73;9.55;;;8.40;99.90;;;;;;4917699;29;20537;-70
2020/12/16 09:18:12;;;;;;;17.08;9.90;;;8.50;99.90;;;;;;4917335;29;20039;-77
2020/12/16 09:20:38;;;;;;;15.88;9.13;;;8.50;99.90;;;;;;4917542;29;20449;-75
2020/12/16 09:23:05;;;;;;;14.25;9.10;;;8.50;99.90;;;;;;4917642;29;20038;-77
2020/12/16 09:25:31;;;;;;;15.02;8.63;;;8.60;99.90;;;;;;4917382;29;20033;-80
2020/12/16 09:28:00;;;;;;;17.73;8.70;;;8.60;99.90;;;;;;4917490;29;20388;-72
2020/12/16 09:30:27;;;;;;;13.07;8.18;;;8.50;99.90;;;;;;4917159;29;20048;-75
2020/12/16 09:32:53;;;;;;;11.98;8.55;;;8.70;99.90;;;;;;4917484;29;20055;-75
2020/12/16 09:35:18;;;;;;;13.48;8.25;;;8.80;99.90;;;;;;4917188;29;20481;-75
2020/12/16 09:37:44;;;;;;;12.23;8.23;;;8.80;99.90;;;;;;4917598;29;20047;-76
2020/12/16 09:40:12;;;;;;;14.43;8.90;;;8.80;99.90;;;;;;4917016;29;20512;-73
2020/12/16 09:42:39;;;;;;;14.95;8.55;;;9.00;99.90;;;;;;4917037;29;20024;-74
2020/12/16 09:45:13;;;;;;;14.75;9.07;;;9.00;99.90;;;;;;4917040;29;20131;-73
2020/12/16 09:47:47;;;;;;;14.10;9.38;;;9.00;99.90;;;;;;4917224;29;20040;-73
2020/12/16 09:50:13;;;;;;;18.90;9.68;;;9.00;99.90;;;;;;4917359;29;20453;-72
2020/12/16 09:52:40;;;;;;;14.30;9.80;;;9.10;99.90;;;;;;4917001;29;20491;-76
2020/12/16 09:55:21;;;;;;;15.38;8.93;;;9.00;99.90;;;;;;4916756;29;20036;-73
2020/12/16 09:58:02;;;;;;;16.13;9.93;;;9.10;99.90;;;;;;4916898;29;20032;-77
2020/12/16 10:00:29;;;;;;;17.75;10.38;;;9.10;99.90;;;;;;4916952;29;20032;-78
2020/12/16 10:03:02;;;;;;;14.65;9.38;;;9.20;99.90;;;;;;4917267;29;20052;-76
2020/12/16 10:05:29;;;;;;;16.85;11.13;;;9.00;99.90;;;;;;4916983;29;20035;-72
2020/12/16 10:07:55;;;;;;;14.93;10.15;;;9.10;99.90;;;;;;4916607;29;20040;-73
2020/12/16 10:10:22;;;;;;;14.52;10.20;;;9.10;99.90;;;;;;4916740;29;20028;-71
2020/12/16 10:12:49;;;;;;;18.10;11.73;;;9.10;99.90;;;;;;4917055;29;20091;-72
2020/12/16 10:15:15;;;;;;;17.27;11.10;;;9.20;99.90;;;;;;4916532;29;20032;-73
2020/12/16 10:17:41;;;;;;;16.27;11.75;;;9.10;99.90;;;;;;4917151;29;20028;-73
2020/12/16 10:20:07;;;;;;;17.95;11.07;;;9.10;99.90;;;;;;4916702;29;20491;-72
2020/12/16 10:22:33;;;;;;;18.00;12.07;;;9.10;99.90;;;;;;4916792;29;20193;-71
2020/12/16 10:25:00;;;;;;;17.20;11.57;;;9.10;99.90;;;;;;4916804;29;20107;-72
2020/12/16 10:27:28;;;;;;;17.10;12.52;;;9.20;99.90;;;;;;4916747;29;20636;-69
2020/12/16 10:29:55;;;;;;;15.95;11.80;;;9.20;99.90;;;;;;4915643;29;20056;-70
2020/12/16 10:32:21;;;;;;;16.73;11.30;;;9.20;99.90;;;;;;4916385;29;20027;-73
2020/12/16 10:34:47;;;;;;;17.10;12.13;;;9.20;99.90;;;;;;4916564;29;20111;-70
2020/12/16 10:37:13;;;;;;;18.80;12.13;;;9.10;99.90;;;;;;4916872;29;20024;-71
2020/12/16 10:39:39;;;;;;;18.88;11.85;;;9.20;99.90;;;;;;4916359;29;20032;-72
2020/12/16 10:45:27;;;;;;;25.73;18.50;;;9.40;99.90;;;;;;4916341;29;20067;-74
2020/12/16 10:47:57;;;;;;;24.05;16.70;;;9.50;99.90;;;;;;4915970;29;20501;-73
2020/12/16 10:50:24;;;;;;;18.15;12.25;;;9.50;99.90;;;;;;4916330;29;20032;-73
2020/12/16 10:52:51;;;;;;;16.20;11.20;;;9.60;99.90;;;;;;4916035;29;20087;-73
2020/12/16 10:55:17;;;;;;;19.98;10.98;;;9.60;99.90;;;;;;4915973;29;20140;-73
2020/12/16 10:57:42;;;;;;;15.25;10.40;;;9.80;99.90;;;;;;4916144;29;20065;-73
2020/12/16 11:00:08;;;;;;;15.13;9.63;;;9.90;99.90;;;;;;4916065;29;20028;-73
2020/12/16 11:02:34;;;;;;;18.00;9.60;;;9.90;99.90;;;;;;4915949;29;20099;-72
2020/12/16 11:04:59;;;;;;;13.63;9.02;;;9.90;99.90;;;;;;4915982;29;20024;-71
2020/12/16 11:07:25;;;;;;;16.70;9.60;;;10.00;99.90;;;;;;4915533;29;20127;-72
2020/12/16 11:09:51;;;;;;;14.90;9.38;;;9.90;99.90;;;;;;4915937;29;20388;-72
2020/12/16 11:15:38;;;;;;;15.25;8.48;;;10.10;99.90;;;;;;4915843;29;20027;-72
2020/12/16 11:18:04;;;;;;;16.98;9.25;;;10.20;99.90;;;;;;4915700;29;20032;-72
2020/12/16 11:20:29;;;;;;;12.70;8.50;;;10.00;99.90;;;;;;4916079;29;20056;-72
2020/12/16 11:22:55;;;;;;;12.15;8.27;;;10.20;99.90;;;;;;4915570;29;20525;-72
2020/12/16 11:25:21;;;;;;;17.05;12.43;;;10.20;99.90;;;;;;4915535;29;20028;-72
2020/12/16 11:27:46;;;;;;;15.38;9.98;;;10.30;99.90;;;;;;4915728;29;20035;-72
2020/12/16 11:30:12;;;;;;;13.38;9.52;;;10.30;99.90;;;;;;4915547;29;20044;-76
2020/12/16 11:32:38;;;;;;;12.85;8.77;;;10.30;99.90;;;;;;4915559;29;20069;-73
2020/12/16 11:35:03;;;;;;;10.43;9.32;;;10.40;99.90;;;;;;4915747;29;20084;-72
2020/12/16 11:37:29;;;;;;;14.77;11.07;;;10.40;99.90;;;;;;4915898;29;20056;-73
2020/12/16 11:39:57;;;;;;;13.02;10.90;;;10.60;99.90;;;;;;4915868;29;20392;-73
2020/12/16 11:45:44;;;;;;;11.43;8.70;;;10.60;99.90;;;;;;4919658;29;20082;-73
2020/12/16 11:48:11;;;;;;;10.88;8.50;;;10.60;99.90;;;;;;4919068;29;20068;-78
2020/12/16 11:50:37;;;;;;;13.85;10.60;;;10.60;99.90;;;;;;4919568;29;20024;-78
2020/12/16 11:53:02;;;;;;;11.32;9.00;;;10.50;99.90;;;;;;4919589;29;20448;-72
2020/12/16 11:55:28;;;;;;;11.73;7.00;;;10.60;99.90;;;;;;4919087;29;20092;-73
2020/12/16 11:57:54;;;;;;;8.43;6.03;;;10.70;99.90;;;;;;4919380;29;20060;-72
2020/12/16 12:00:19;;;;;;;9.77;6.82;;;10.80;99.90;;;;;;4917649;29;20083;-68
2020/12/16 12:02:45;;;;;;;9.25;6.25;;;10.70;99.90;;;;;;4919560;29;20423;-71
2020/12/16 12:05:13;;;;;;;8.98;6.25;;;10.80;99.90;;;;;;4919586;29;20027;-71
2020/12/16 12:07:39;;;;;;;9.80;5.63;;;10.70;99.90;;;;;;4919127;29;20032;-71
2020/12/16 12:10:05;;;;;;;10.45;6.32;;;10.90;99.90;;;;;;4919062;29;20046;-72
2020/12/16 12:15:52;;;;;;;7.70;5.18;;;10.90;99.90;;;;;;4919330;29;20048;-71
2020/12/16 12:18:18;;;;;;;7.97;5.50;;;10.90;99.90;;;;;;4919138;29;20032;-69
2020/12/16 12:20:44;;;;;;;8.82;5.53;;;10.90;99.90;;;;;;4919058;29;20461;-74
2020/12/16 12:23:10;;;;;;;8.13;6.38;;;10.90;99.90;;;;;;4919098;29;20388;-71
2020/12/16 12:25:35;;;;;;;10.02;5.40;;;10.90;99.90;;;;;;4919058;29;20028;-71
2020/12/16 12:28:02;;;;;;;7.85;5.30;;;10.90;99.90;;;;;;4918565;29;20032;-73
2020/12/16 12:30:27;;;;;;;8.73;5.40;;;10.80;99.90;;;;;;4918674;29;20087;-73
2020/12/16 12:32:53;;;;;;;8.23;5.47;;;10.60;99.90;;;;;;4919025;29;20051;-72
2020/12/16 12:35:19;;;;;;;8.88;4.90;;;10.60;99.90;;;;;;4918609;29;20437;-73
2020/12/16 12:37:44;;;;;;;5.82;4.50;;;10.60;99.90;;;;;;4918880;29;20119;-72
2020/12/16 12:40:10;;;;;;;8.15;4.53;;;10.70;99.90;;;;;;4918517;29;20024;-72
2020/12/16 12:45:58;;;;;;;5.70;4.22;;;10.80;99.90;;;;;;4918778;29;20091;-73
2020/12/16 12:48:24;;;;;;;6.88;4.55;;;11.00;99.90;;;;;;4918667;29;20071;-73
2020/12/16 12:50:49;;;;;;;6.18;4.05;;;11.20;99.90;;;;;;4918681;29;20032;-73
2020/12/16 12:53:15;;;;;;;5.57;3.70;;;11.20;99.90;;;;;;4917784;29;20440;-73
2020/12/16 12:55:41;;;;;;;6.07;3.90;;;11.20;99.90;;;;;;4918338;29;20028;-74
2020/12/16 13:01:28;;;;;;;5.95;3.92;;;11.40;99.90;;;;;;4918967;29;20055;-72
2020/12/16 13:03:54;;;;;;;8.80;4.68;;;11.70;99.90;;;;;;4918247;29;20526;-71
2020/12/16 13:06:19;;;;;;;5.38;4.13;;;11.70;99.90;;;;;;4918323;29;20469;-70
2020/12/16 13:08:46;;;;;;;9.13;4.82;;;11.80;99.90;;;;;;4918074;29;20070;-71
2020/12/16 13:11:12;;;;;;;7.90;4.85;;;11.80;99.90;;;;;;4918562;29;20035;-71
2020/12/16 13:13:38;;;;;;;9.18;5.05;;;11.70;99.90;;;;;;4918002;29;20076;-72
2020/12/16 13:16:08;;;;;;;5.80;4.53;;;11.80;99.90;;;;;;4918133;29;20142;-73
2020/12/16 13:18:35;;;;;;;9.32;5.63;;;11.90;99.90;;;;;;4918209;29;20032;-72
2020/12/16 13:21:01;;;;;;;6.35;4.82;;;11.70;99.90;;;;;;4917919;29;20473;-69
2020/12/16 13:23:27;;;;;;;7.82;5.22;;;11.70;99.90;;;;;;4918018;29;20032;-71
2020/12/16 13:25:53;;;;;;;6.72;5.50;;;11.50;99.90;;;;;;4917957;29;20052;-75
2020/12/16 13:31:44;;;;;;;8.15;4.97;;;11.70;99.90;;;;;;4907737;29;20413;-72
2020/12/16 13:34:10;;;;;;;8.60;4.80;;;11.90;99.90;;;;;;4918218;29;20156;-73
2020/12/16 13:36:35;;;;;;;7.90;5.15;;;12.00;99.90;;;;;;4918227;29;20119;-72
2020/12/16 13:39:01;;;;;;;5.50;4.63;;;12.00;99.90;;;;;;4918017;29;20055;-74
2020/12/16 13:41:28;;;;;;;7.63;5.35;;;12.10;99.90;;;;;;4917843;29;20102;-69